Time;durP1;ratioP1;P1;durP2;ratioP2;P2;SDS_P1;SDS_P2;PMS_P1;PMS_P2;Temp;Humidity;BMP_temperature;BMP_pressure;BME280_temperature;BME280_humidity;BME280_pressure;Samples;Min_cycle;Max_cycle;Signal;HPM_P1;HPM_P2
2023/07/04 00:01:10;;;;;;;5.47;2.28;;;18.30;83.00;;;;;;4973430;28;20194;-66
2023/07/04 00:03:40;;;;;;;5.68;1.92;;;18.40;90.60;;;;;;4986929;28;20582;-67
2023/07/04 00:06:10;;;;;;;3.40;1.52;;;18.60;81.20;;;;;;4954092;28;1101652;-67
2023/07/04 00:08:37;;;;;;;4.10;1.60;;;18.20;83.50;;;;;;4991347;28;20200;-60
2023/07/04 00:11:06;;;;;;;8.18;2.17;;;18.60;83.00;;;;;;4984601;28;20232;-68
2023/07/04 00:13:35;;;;;;;4.22;1.88;;;18.60;82.80;;;;;;4980111;28;20278;-60
2023/07/04 00:16:06;;;;;;;5.10;1.80;;;18.60;83.10;;;;;;4989080;28;20202;-61
2023/07/04 00:18:34;;;;;;;4.85;1.42;;;18.50;83.30;;;;;;4983332;28;20198;-60
2023/07/04 00:21:04;;;;;;;3.17;1.67;;;18.40;83.10;;;;;;4988210;28;20205;-61
2023/07/04 00:23:35;;;;;;;6.45;2.08;;;18.60;84.10;;;;;;4978477;28;20746;-62
2023/07/04 00:26:06;;;;;;;4.75;1.88;;;18.70;83.50;;;;;;4987086;28;20240;-63
2023/07/04 00:28:38;;;;;;;5.00;1.88;;;18.60;85.60;;;;;;4967413;28;20202;-62
2023/07/04 00:31:07;;;;;;;2.80;1.98;;;18.30;87.20;;;;;;4984589;28;20243;-62
2023/07/04 00:33:35;;;;;;;8.35;1.83;;;17.90;87.70;;;;;;4967811;28;20217;-62
2023/07/04 00:36:11;;;;;;;4.75;1.75;;;17.80;89.00;;;;;;4966191;28;20206;-63
2023/07/04 00:38:40;;;;;;;2.30;1.40;;;17.80;90.00;;;;;;4980640;28;20201;-62
2023/07/04 00:41:14;;;;;;;4.75;1.88;;;17.60;90.80;;;;;;4971807;28;20656;-69
2023/07/04 00:44:00;;;;;;;1.88;1.10;;;17.50;91.00;;;;;;4986811;28;20221;-65
2023/07/04 00:46:37;;;;;;;2.25;1.42;;;17.60;91.60;;;;;;4967723;28;20196;-61
2023/07/04 00:49:20;;;;;;;3.92;1.58;;;17.60;91.00;;;;;;4962002;28;20213;-62
2023/07/04 00:52:06;;;;;;;4.55;1.50;;;17.60;91.10;;;;;;4983656;28;20190;-68
2023/07/04 00:54:44;;;;;;;2.20;1.23;;;17.50;92.50;;;;;;4984086;28;20205;-71
2023/07/04 00:57:13;;;;;;;2.33;1.42;;;17.30;92.20;;;;;;4968435;28;20712;-68
2023/07/04 00:59:45;;;;;;;3.90;1.48;;;17.20;92.20;;;;;;4992085;28;20552;-68
2023/07/04 01:02:22;;;;;;;5.03;1.42;;;17.30;93.00;;;;;;4977074;28;20287;-68
2023/07/04 01:04:51;;;;;;;6.45;1.20;;;17.20;92.90;;;;;;4985481;28;20216;-61
2023/07/04 01:07:27;;;;;;;2.22;1.38;;;17.10;93.10;;;;;;4976702;28;20229;-61
2023/07/04 01:10:32;;;;;;;5.70;1.60;;;16.90;92.90;;;;;;4972119;28;20602;-62
2023/07/04 01:13:00;;;;;;;3.50;1.40;;;17.10;93.00;;;;;;4969454;28;20205;-62
2023/07/04 01:15:30;;;;;;;4.68;1.35;;;17.10;92.80;;;;;;4989906;28;20225;-60
2023/07/04 01:17:59;;;;;;;3.45;1.50;;;17.10;94.00;;;;;;4972156;28;20208;-60
2023/07/04 01:20:26;;;;;;;4.40;0.98;;;16.70;93.30;;;;;;4986497;28;20190;-60
2023/07/04 01:23:17;;;;;;;3.05;1.10;;;16.70;93.50;;;;;;4988820;28;20202;-61
2023/07/04 01:25:52;;;;;;;1.50;1.30;;;16.70;93.90;;;;;;4985070;28;20358;-61
2023/07/04 01:28:20;;;;;;;2.25;1.20;;;16.70;93.40;;;;;;4983876;28;20198;-61
2023/07/04 01:30:47;;;;;;;1.58;1.13;;;16.60;93.80;;;;;;4974302;28;20264;-69
2023/07/04 01:33:15;;;;;;;4.03;1.48;;;16.60;93.70;;;;;;4969251;28;20241;-68
2023/07/04 01:35:45;;;;;;;2.10;1.37;;;16.50;94.50;;;;;;4989802;28;20614;-65
2023/07/04 01:38:12;;;;;;;4.40;1.20;;;16.60;94.60;;;;;;4987377;28;20197;-58
2023/07/04 01:40:39;;;;;;;2.22;1.30;;;16.70;94.70;;;;;;4988099;28;20256;-60
2023/07/04 01:43:06;;;;;;;3.50;1.37;;;16.70;94.20;;;;;;4974031;28;20268;-60
2023/07/04 01:45:35;;;;;;;1.60;1.20;;;16.80;95.50;;;;;;4970896;28;20737;-61
2023/07/04 01:48:04;;;;;;;1.98;1.13;;;16.70;94.90;;;;;;4970817;28;20419;-61
2023/07/04 01:50:36;;;;;;;4.67;1.37;;;16.80;98.60;;;;;;4976892;28;20201;-61
2023/07/04 01:53:03;;;;;;;5.32;1.92;;;16.70;94.90;;;;;;4991826;28;20654;-61
2023/07/04 01:55:30;;;;;;;6.63;3.93;;;16.50;95.00;;;;;;4986150;28;20620;-59
2023/07/04 01:57:57;;;;;;;10.20;4.80;;;16.30;95.40;;;;;;4969317;28;20217;-60
2023/07/04 02:04:24;;;;;;;5.13;3.07;;;16.20;96.20;;;;;;4990389;28;20232;-68
2023/07/04 02:06:51;;;;;;;9.83;5.30;;;16.50;96.10;;;;;;4983355;28;20409;-61
2023/07/04 02:09:18;;;;;;;12.40;6.82;;;16.80;96.00;;;;;;4976488;28;20206;-68
2023/07/04 02:11:46;;;;;;;15.00;6.33;;;16.90;95.90;;;;;;4988842;28;20240;-69
2023/07/04 02:14:18;;;;;;;5.25;3.60;;;17.10;95.70;;;;;;4971797;28;20225;-61
2023/07/04 02:16:45;;;;;;;9.38;3.75;;;17.00;95.90;;;;;;4989740;28;20205;-68
2023/07/04 02:19:12;;;;;;;7.50;2.20;;;17.00;95.80;;;;;;4986863;28;20685;-61
2023/07/04 02:21:39;;;;;;;5.80;1.70;;;16.90;96.10;;;;;;4989535;28;20284;-60
2023/07/04 02:24:06;;;;;;;4.95;2.17;;;16.90;96.00;;;;;;4971754;28;20225;-68
2023/07/04 02:26:36;;;;;;;5.00;2.30;;;16.70;96.80;;;;;;4972403;28;20197;-68
2023/07/04 02:29:03;;;;;;;3.07;2.13;;;16.70;96.60;;;;;;4971592;28;20194;-68
2023/07/04 02:31:30;;;;;;;3.20;2.15;;;16.70;97.40;;;;;;4954591;28;20986;-68
2023/07/04 02:33:59;;;;;;;3.73;1.83;;;16.90;97.30;;;;;;4986871;28;20194;-61
2023/07/04 02:36:26;;;;;;;3.97;1.90;;;16.70;96.80;;;;;;4972105;28;20204;-61
2023/07/04 02:38:53;;;;;;;3.13;1.67;;;16.60;97.20;;;;;;4987175;28;20206;-61
2023/07/04 02:41:20;;;;;;;6.97;2.00;;;16.50;97.40;;;;;;4954611;28;20298;-61
2023/07/04 02:43:51;;;;;;;3.53;1.67;;;16.00;97.90;;;;;;4970526;28;20327;-61
2023/07/04 02:46:18;;;;;;;3.30;1.47;;;15.90;98.90;;;;;;4971885;28;20685;-61
2023/07/04 02:48:49;;;;;;;4.27;2.10;;;15.80;98.70;;;;;;4974623;28;20196;-61
2023/07/04 02:51:17;;;;;;;4.53;1.93;;;15.70;99.60;;;;;;4984709;28;20200;-62
2023/07/04 02:53:44;;;;;;;3.50;1.83;;;15.70;99.10;;;;;;4972656;28;20619;-70
2023/07/04 02:56:11;;;;;;;4.27;1.83;;;15.60;99.90;;;;;;4986448;28;20623;-70
2023/07/04 02:58:39;;;;;;;7.80;1.83;;;15.50;99.90;;;;;;4989029;28;20586;-69
2023/07/04 03:01:06;;;;;;;4.33;2.00;;;15.30;99.90;;;;;;4986557;28;20213;-66
2023/07/04 03:03:34;;;;;;;4.80;1.73;;;15.30;99.90;;;;;;4969185;28;20239;-68
2023/07/04 03:06:04;;;;;;;3.23;1.80;;;15.20;99.90;;;;;;4970244;28;20709;-69
2023/07/04 03:08:33;;;;;;;6.43;2.00;;;15.30;99.90;;;;;;4970975;28;20244;-67
2023/07/04 03:11:01;;;;;;;2.17;1.83;;;15.50;99.90;;;;;;4986495;28;20193;-68
2023/07/04 03:13:32;;;;;;;2.93;1.90;;;15.40;99.90;;;;;;4988480;28;20617;-66
2023/07/04 03:16:00;;;;;;;5.80;2.40;;;15.40;99.90;;;;;;4969495;28;20202;-60
2023/07/04 03:18:27;;;;;;;5.07;1.50;;;15.00;99.90;;;;;;4988010;28;20580;-60
2023/07/04 03:20:55;;;;;;;3.83;1.67;;;14.70;99.90;;;;;;4987018;28;20241;-59
2023/07/04 03:23:22;;;;;;;2.00;1.67;;;14.40;99.90;;;;;;4987463;28;20217;-70
2023/07/04 03:25:49;;;;;;;4.07;2.10;;;14.30;99.90;;;;;;4972808;28;20221;-59
2023/07/04 03:28:17;;;;;;;4.53;2.17;;;14.20;99.90;;;;;;4987251;28;20209;-67
2023/07/04 03:30:45;;;;;;;4.90;2.00;;;14.30;99.90;;;;;;4988307;28;20588;-66
2023/07/04 03:33:13;;;;;;;4.27;1.90;;;14.20;99.90;;;;;;4987175;28;20269;-67
2023/07/04 03:35:41;;;;;;;3.47;1.70;;;14.20;99.90;;;;;;4987111;28;20209;-59
2023/07/04 03:38:25;;;;;;;4.07;1.83;;;14.20;99.90;;;;;;4983994;28;20681;-68
2023/07/04 03:40:52;;;;;;;8.00;2.07;;;14.20;99.90;;;;;;4984833;28;20233;-60
2023/07/04 03:43:22;;;;;;;2.77;1.97;;;14.20;99.90;;;;;;4987271;28;20205;-68
2023/07/04 03:45:49;;;;;;;4.53;1.93;;;14.20;99.90;;;;;;4989795;28;20256;-67
2023/07/04 03:48:17;;;;;;;4.47;2.40;;;14.30;99.90;;;;;;4971682;28;20233;-67
2023/07/04 03:50:45;;;;;;;4.93;1.97;;;14.30;99.90;;;;;;4969239;28;20231;-67
2023/07/04 03:53:12;;;;;;;3.53;2.10;;;14.40;99.90;;;;;;4966746;28;20193;-67
2023/07/04 03:55:39;;;;;;;3.73;3.23;;;14.30;99.90;;;;;;4968838;28;20226;-66
2023/07/04 03:58:06;;;;;;;6.73;2.40;;;14.30;99.90;;;;;;4969528;28;20240;-66
2023/07/04 04:00:33;;;;;;;4.47;2.23;;;14.60;99.90;;;;;;4988744;28;20194;-71
2023/07/04 04:03:01;;;;;;;5.57;2.27;;;14.90;99.90;;;;;;4984781;28;20316;-69
2023/07/04 04:05:29;;;;;;;4.70;2.10;;;15.10;99.90;;;;;;4987588;28;20317;-66
2023/07/04 04:07:56;;;;;;;8.50;2.40;;;15.50;99.90;;;;;;4969127;28;20201;-67
2023/07/04 04:10:23;;;;;;;5.20;2.30;;;15.50;99.90;;;;;;4970945;28;20215;-66
2023/07/04 04:12:50;;;;;;;8.00;2.07;;;15.90;99.90;;;;;;4987722;28;20202;-66
2023/07/04 04:15:17;;;;;;;5.13;1.87;;;16.00;99.90;;;;;;4988781;28;20194;-68
2023/07/04 04:17:44;;;;;;;4.73;1.57;;;16.10;99.90;;;;;;4970041;28;20269;-68
2023/07/04 04:20:11;;;;;;;8.07;2.70;;;16.00;99.90;;;;;;4984251;28;20193;-68
2023/07/04 04:22:44;;;;;;;10.90;2.57;;;15.80;99.90;;;;;;4986216;28;20182;-68
2023/07/04 04:25:13;;;;;;;11.10;2.33;;;15.90;99.90;;;;;;4988409;28;20336;-69
2023/07/04 04:27:43;;;;;;;4.07;1.60;;;15.80;99.90;;;;;;4991878;28;20215;-69
2023/07/04 04:30:10;;;;;;;4.97;2.07;;;15.60;99.90;;;;;;4971513;28;20265;-69
2023/07/04 04:32:39;;;;;;;5.70;2.00;;;15.70;99.90;;;;;;4982359;28;20190;-68
2023/07/04 04:35:10;;;;;;;7.57;2.40;;;15.80;99.90;;;;;;4989956;28;20205;-68
2023/07/04 04:37:37;;;;;;;7.30;2.00;;;15.80;99.90;;;;;;4986634;28;20202;-71
2023/07/04 04:40:06;;;;;;;2.83;1.87;;;15.80;99.90;;;;;;4987246;28;20209;-69
2023/07/04 04:42:34;;;;;;;8.07;2.10;;;15.80;99.90;;;;;;4972274;28;20329;-68
2023/07/04 04:45:03;;;;;;;9.43;3.73;;;16.00;99.90;;;;;;4985293;28;20250;-69
2023/07/04 04:47:33;;;;;;;11.70;2.60;;;16.50;99.90;;;;;;4972053;28;20271;-69
2023/07/04 04:50:01;;;;;;;8.20;2.37;;;16.60;99.90;;;;;;4984538;28;20236;-69
2023/07/04 04:52:33;;;;;;;8.07;2.00;;;16.70;99.90;;;;;;4987508;28;20197;-65
2023/07/04 04:55:03;;;;;;;10.27;2.17;;;16.70;99.90;;;;;;4985352;28;20194;-66
2023/07/04 04:57:30;;;;;;;6.27;2.53;;;16.50;99.90;;;;;;4987278;28;20205;-67
2023/07/04 04:59:59;;;;;;;6.90;1.70;;;16.30;99.90;;;;;;4971240;28;20264;-68
2023/07/04 05:02:30;;;;;;;7.80;2.33;;;16.30;99.90;;;;;;4980714;28;20206;-70
2023/07/04 05:05:01;;;;;;;7.35;2.67;;;16.40;99.90;;;;;;4986875;28;20299;-68
2023/07/04 05:07:29;;;;;;;12.63;2.77;;;16.90;99.90;;;;;;4984496;28;20279;-60
2023/07/04 05:10:00;;;;;;;10.60;2.50;;;16.80;99.90;;;;;;4982452;28;20567;-63
2023/07/04 05:12:27;;;;;;;5.47;1.83;;;16.70;99.90;;;;;;4969191;28;20534;-59
2023/07/04 05:14:54;;;;;;;6.60;2.17;;;16.60;99.90;;;;;;4985915;28;20210;-61
2023/07/04 05:17:21;;;;;;;7.28;2.28;;;16.80;99.90;;;;;;4987734;28;20208;-60
2023/07/04 05:19:50;;;;;;;13.45;2.22;;;17.10;99.90;;;;;;4982753;28;20205;-61
2023/07/04 05:22:18;;;;;;;6.22;2.15;;;17.20;99.90;;;;;;4986091;28;20725;-62
2023/07/04 05:24:45;;;;;;;8.27;2.13;;;17.20;99.90;;;;;;4981548;28;20217;-61
2023/07/04 05:27:12;;;;;;;3.72;2.08;;;16.90;99.90;;;;;;4985733;28;20194;-61
2023/07/04 05:29:39;;;;;;;8.20;3.00;;;16.90;99.90;;;;;;4981465;28;20221;-59
2023/07/04 05:32:07;;;;;;;9.40;2.50;;;16.90;99.90;;;;;;4980978;28;20186;-58
2023/07/04 05:34:34;;;;;;;4.87;2.20;;;16.50;99.90;;;;;;4986256;28;20236;-58
2023/07/04 05:37:02;;;;;;;3.67;2.30;;;16.50;99.90;;;;;;4980248;28;20202;-59
2023/07/04 05:39:29;;;;;;;7.90;2.80;;;16.40;99.90;;;;;;4985656;28;20618;-61
2023/07/04 05:41:56;;;;;;;4.23;2.13;;;16.30;99.90;;;;;;4993675;28;20276;-59
2023/07/04 05:44:23;;;;;;;8.60;2.43;;;16.20;99.90;;;;;;4985362;28;20202;-60
2023/07/04 05:46:53;;;;;;;4.60;2.97;;;16.30;99.90;;;;;;4987633;28;20320;-61
2023/07/04 05:49:20;;;;;;;4.07;2.20;;;16.30;99.90;;;;;;4988315;28;20202;-59
2023/07/04 05:51:47;;;;;;;5.03;2.13;;;16.20;99.90;;;;;;4988028;28;20213;-61
2023/07/04 05:54:14;;;;;;;6.20;2.27;;;16.20;99.90;;;;;;4989922;28;20189;-62
2023/07/04 05:56:41;;;;;;;6.00;2.37;;;16.20;99.90;;;;;;4987745;28;20201;-60
2023/07/04 05:59:09;;;;;;;4.00;2.23;;;16.40;99.90;;;;;;4972098;28;20194;-62
2023/07/04 06:01:42;;;;;;;6.00;2.60;;;16.30;99.90;;;;;;4988084;28;20197;-58
2023/07/04 06:04:11;;;;;;;4.23;2.23;;;15.90;99.90;;;;;;4983704;28;20222;-61
2023/07/04 06:06:51;;;;;;;5.33;2.53;;;15.60;99.90;;;;;;4986135;28;20288;-58
2023/07/04 06:09:19;;;;;;;5.87;2.27;;;15.60;99.90;;;;;;4967499;28;20789;-61
2023/07/04 06:11:48;;;;;;;4.87;2.40;;;16.00;99.90;;;;;;4990834;28;20240;-62
2023/07/04 06:14:23;;;;;;;4.43;2.50;;;16.30;99.90;;;;;;4989648;28;20216;-62
2023/07/04 06:16:51;;;;;;;3.90;2.65;;;17.40;99.90;;;;;;4975512;28;20199;-60
2023/07/04 06:19:19;;;;;;;5.45;1.92;;;18.70;99.90;;;;;;4988091;28;20281;-63
2023/07/04 06:21:47;;;;;;;3.08;2.20;;;19.10;99.90;;;;;;4989421;28;20702;-59
2023/07/04 06:24:16;;;;;;;7.15;2.30;;;18.70;99.90;;;;;;4986218;28;20276;-60
2023/07/04 06:26:43;;;;;;;4.38;2.10;;;20.20;99.90;;;;;;4988620;28;20217;-60
2023/07/04 06:29:10;;;;;;;5.78;1.90;;;21.40;99.90;;;;;;4975903;28;20248;-59
2023/07/04 06:31:41;;;;;;;4.38;1.83;;;23.00;99.90;;;;;;4986305;28;20553;-60
2023/07/04 06:34:11;;;;;;;4.50;1.45;;;24.40;99.90;;;;;;4986109;28;20288;-59
2023/07/04 06:36:38;;;;;;;8.57;1.98;;;25.50;99.90;;;;;;4983401;28;20198;-61
2023/07/04 06:39:05;;;;;;;6.70;2.53;;;24.70;99.90;;;;;;4985534;28;20766;-60
2023/07/04 06:41:32;;;;;;;9.55;2.55;;;25.10;99.90;;;;;;4988537;28;20657;-60
2023/07/04 06:43:59;;;;;;;7.65;2.67;;;24.60;99.90;;;;;;4989086;28;20677;-60
2023/07/04 06:46:26;;;;;;;6.25;2.25;;;24.80;99.90;;;;;;4990051;28;20843;-60
2023/07/04 06:48:53;;;;;;;4.38;2.33;;;24.50;98.50;;;;;;4989067;28;20206;-59
2023/07/04 06:51:20;;;;;;;10.93;3.00;;;23.00;98.90;;;;;;4988280;28;20685;-60
2023/07/04 06:53:48;;;;;;;8.27;2.58;;;21.60;98.10;;;;;;4987534;28;20236;-62
2023/07/04 06:56:20;;;;;;;7.82;2.65;;;21.70;98.50;;;;;;4987293;28;20212;-60
2023/07/04 06:58:50;;;;;;;9.25;2.65;;;21.80;99.90;;;;;;4971547;28;20752;-60
2023/07/04 07:01:19;;;;;;;11.20;2.17;;;22.80;99.30;;;;;;4984958;28;20194;-63
2023/07/04 07:03:46;;;;;;;3.53;2.10;;;23.50;99.90;;;;;;4986964;28;20578;-60
2023/07/04 07:06:14;;;;;;;6.05;2.25;;;23.50;98.60;;;;;;4985977;28;20889;-60
2023/07/04 07:08:41;;;;;;;6.10;2.17;;;23.70;97.70;;;;;;4994593;28;20244;-61
2023/07/04 07:11:13;;;;;;;7.97;2.42;;;22.60;99.90;;;;;;4988959;28;20591;-60
2023/07/04 07:13:41;;;;;;;11.88;2.90;;;24.40;99.90;;;;;;4987790;28;20194;-61
2023/07/04 07:16:17;;;;;;;4.78;2.42;;;23.20;97.20;;;;;;4984448;28;20262;-60
2023/07/04 07:18:46;;;;;;;7.88;1.90;;;22.60;98.60;;;;;;4984555;28;20209;-61
2023/07/04 07:21:18;;;;;;;10.52;3.20;;;23.10;97.50;;;;;;4975784;28;20629;-61
2023/07/04 07:23:46;;;;;;;6.53;2.38;;;23.60;97.10;;;;;;4970783;28;20282;-68
2023/07/04 07:26:17;;;;;;;5.28;2.20;;;24.70;98.20;;;;;;4976135;28;20577;-68
2023/07/04 07:28:48;;;;;;;6.53;2.38;;;23.90;96.30;;;;;;4987101;28;20193;-68
2023/07/04 07:31:20;;;;;;;11.98;2.42;;;26.00;97.90;;;;;;4981641;28;20190;-68
2023/07/04 07:33:49;;;;;;;9.15;2.50;;;24.40;97.60;;;;;;4980644;28;20630;-69
2023/07/04 07:36:18;;;;;;;6.13;2.45;;;24.60;96.40;;;;;;4968475;28;20217;-69
2023/07/04 07:38:45;;;;;;;9.05;2.85;;;25.20;96.50;;;;;;4988590;28;20305;-69
2023/07/04 07:41:13;;;;;;;7.60;2.90;;;24.50;94.20;;;;;;4979682;28;20206;-69
2023/07/04 07:43:41;;;;;;;5.85;2.63;;;23.30;95.00;;;;;;4969968;28;20190;-69
2023/07/04 07:46:13;;;;;;;7.82;2.35;;;22.60;93.20;;;;;;4989265;28;20214;-68
2023/07/04 07:48:41;;;;;;;9.13;2.60;;;21.80;95.40;;;;;;4988677;28;20227;-70
2023/07/04 07:51:11;;;;;;;10.50;3.72;;;21.90;95.30;;;;;;4988888;28;20276;-71
2023/07/04 07:53:41;;;;;;;6.60;2.70;;;22.40;98.60;;;;;;4971178;28;20263;-84
2023/07/04 07:56:10;;;;;;;7.95;2.35;;;25.20;96.90;;;;;;4982918;28;20201;-69
2023/07/04 07:58:38;;;;;;;6.60;2.75;;;26.50;93.80;;;;;;4987140;28;20348;-68
2023/07/04 08:01:17;;;;;;;8.90;2.67;;;24.00;90.30;;;;;;4988244;28;20201;-67
2023/07/04 08:03:44;;;;;;;8.75;2.60;;;21.90;91.90;;;;;;4981832;28;20283;-68
2023/07/04 08:06:23;;;;;;;7.50;2.28;;;22.50;95.20;;;;;;4984609;28;20270;-68
2023/07/04 08:08:51;;;;;;;7.45;2.50;;;25.70;96.60;;;;;;4986049;28;20190;-67
2023/07/04 08:11:19;;;;;;;5.57;2.20;;;26.40;92.50;;;;;;4986012;28;20615;-70
2023/07/04 08:13:46;;;;;;;7.10;2.90;;;26.60;94.60;;;;;;4972633;28;20194;-67
2023/07/04 08:16:19;;;;;;;6.20;2.50;;;26.70;93.20;;;;;;4979379;28;20202;-68
2023/07/04 08:18:47;;;;;;;9.27;2.20;;;27.80;91.00;;;;;;4978578;28;20696;-69
2023/07/04 08:21:14;;;;;;;3.70;2.00;;;29.50;91.20;;;;;;4981529;28;20622;-69
2023/07/04 08:23:42;;;;;;;6.65;2.63;;;26.50;82.90;;;;;;4987133;28;20221;-68
2023/07/04 08:26:18;;;;;;;5.20;2.40;;;25.60;87.00;;;;;;4969699;28;20577;-68
2023/07/04 08:28:45;;;;;;;6.93;2.33;;;24.80;90.10;;;;;;4968705;28;20688;-69
2023/07/04 08:31:18;;;;;;;6.97;2.55;;;25.80;85.10;;;;;;4986454;28;20558;-68
2023/07/04 08:33:47;;;;;;;5.07;2.22;;;23.90;85.40;;;;;;4982464;28;20269;-68
2023/07/04 08:36:16;;;;;;;7.05;2.95;;;23.90;86.40;;;;;;4985474;28;20215;-69
2023/07/04 08:38:45;;;;;;;8.80;2.45;;;23.60;89.20;;;;;;4986215;28;20200;-69
2023/07/04 08:41:37;;;;;;;5.13;2.47;;;23.60;86.60;;;;;;4975655;28;20205;-69
2023/07/04 08:44:10;;;;;;;5.97;2.25;;;24.60;90.70;;;;;;4982031;28;20201;-69
2023/07/04 08:46:41;;;;;;;7.97;2.25;;;24.00;86.20;;;;;;4983490;28;20276;-69
2023/07/04 08:49:38;;;;;;;5.95;2.00;;;23.70;87.10;;;;;;4966678;28;20229;-69
2023/07/04 08:52:29;;;;;;;7.82;2.38;;;25.00;89.30;;;;;;4965172;28;20236;-70
2023/07/04 08:54:56;;;;;;;4.75;1.75;;;24.40;82.60;;;;;;4985405;28;20205;-69
2023/07/04 08:57:59;;;;;;;7.82;2.70;;;24.80;89.00;;;;;;4985640;28;20712;-69
2023/07/04 09:00:42;;;;;;;67.15;14.25;;;23.80;81.50;;;;;;4910816;29;20200;-70
2023/07/04 09:03:27;;;;;;;7.10;2.83;;;25.20;99.90;;;;;;4972028;28;20604;-72
2023/07/04 09:06:10;;;;;;;19.75;5.13;;;26.20;88.70;;;;;;4958453;28;20238;-69
2023/07/04 09:08:57;;;;;;;9.13;2.67;;;27.90;86.20;;;;;;4964880;28;20210;-70
2023/07/04 09:11:24;;;;;;;10.50;2.85;;;27.00;80.60;;;;;;4962199;28;20203;-69
2023/07/04 09:14:20;;;;;;;2.95;1.60;;;26.70;79.90;;;;;;4981044;28;20260;-69
2023/07/04 09:16:50;;;;;;;10.40;3.05;;;27.30;78.80;;;;;;4955886;28;20686;-70
2023/07/04 09:19:21;;;;;;;4.88;2.00;;;26.40;74.90;;;;;;4964686;28;20215;-70
2023/07/04 09:21:48;;;;;;;10.15;2.33;;;25.00;75.40;;;;;;4970593;28;20646;-69
2023/07/04 09:24:15;;;;;;;5.10;2.42;;;24.20;72.60;;;;;;4969602;28;20681;-68
2023/07/04 09:26:46;;;;;;;9.15;2.42;;;23.20;75.30;;;;;;4971246;28;20225;-69
2023/07/04 09:29:17;;;;;;;4.25;2.00;;;25.20;84.80;;;;;;4985715;28;20206;-70
2023/07/04 09:31:46;;;;;;;5.55;2.47;;;28.00;75.60;;;;;;4969144;28;20203;-70
2023/07/04 09:34:21;;;;;;;8.50;1.85;;;27.40;74.60;;;;;;4967329;28;20303;-69
2023/07/04 09:36:51;;;;;;;7.72;2.78;;;26.20;73.50;;;;;;4971851;28;20194;-69
2023/07/04 09:39:19;;;;;;;5.00;2.00;;;25.50;94.60;;;;;;4977393;28;20206;-69
2023/07/04 09:41:59;;;;;;;3.47;2.15;;;26.90;74.40;;;;;;4982521;28;20326;-69
2023/07/04 09:44:32;;;;;;;3.40;2.03;;;25.90;72.00;;;;;;4969382;28;20308;-69
2023/07/04 09:47:01;;;;;;;5.43;1.92;;;27.60;73.40;;;;;;4971446;28;20210;-69
2023/07/04 09:49:35;;;;;;;4.18;1.75;;;28.00;70.00;;;;;;4986383;28;20678;-70
2023/07/04 09:52:18;;;;;;;3.45;1.60;;;26.20;64.40;;;;;;4969354;28;20689;-69
2023/07/04 09:55:08;;;;;;;3.75;1.70;;;26.60;67.20;;;;;;4982318;28;20657;-68
2023/07/04 09:57:35;;;;;;;5.95;1.70;;;26.00;63.00;;;;;;4969188;28;20206;-68
2023/07/04 10:00:19;;;;;;;3.88;1.60;;;27.40;66.40;;;;;;4970935;28;20274;-68
2023/07/04 10:02:52;;;;;;;5.53;1.73;;;28.80;64.10;;;;;;4970044;28;20202;-68
2023/07/04 10:05:38;;;;;;;3.40;1.60;;;28.50;90.40;;;;;;4978294;28;20297;-68
2023/07/04 10:08:10;;;;;;;5.93;2.00;;;29.10;62.90;;;;;;4951865;28;20297;-68
2023/07/04 10:10:50;;;;;;;2.03;1.23;;;29.40;61.70;;;;;;4963358;28;20598;-69
2023/07/04 10:13:20;;;;;;;5.32;1.38;;;30.40;59.40;;;;;;4967700;28;20622;-70
2023/07/04 10:15:49;;;;;;;5.28;1.70;;;28.30;56.90;;;;;;4968206;28;20202;-69
2023/07/04 10:18:33;;;;;;;3.97;2.10;;;28.40;58.30;;;;;;4969369;28;20204;-69
2023/07/04 10:21:01;;;;;;;5.05;1.95;;;28.90;57.60;;;;;;4968924;28;20202;-69
2023/07/04 10:23:30;;;;;;;5.43;1.80;;;28.20;55.20;;;;;;4969525;28;20195;-69
2023/07/04 10:26:00;;;;;;;4.57;1.70;;;28.10;59.10;;;;;;4969466;28;20214;-69
2023/07/04 10:28:28;;;;;;;6.10;1.85;;;29.90;58.50;;;;;;4980139;28;20210;-69
2023/07/04 10:31:03;;;;;;;7.40;2.10;;;28.10;54.70;;;;;;4965046;28;20515;-69
2023/07/04 10:33:43;;;;;;;5.60;1.88;;;27.30;52.30;;;;;;4964072;28;20526;-69
2023/07/04 10:36:14;;;;;;;4.43;1.75;;;27.30;52.80;;;;;;4967964;28;20688;-69
2023/07/04 10:38:45;;;;;;;4.00;1.80;;;25.70;55.40;;;;;;4968417;28;20249;-69
2023/07/04 10:41:20;;;;;;;5.55;1.80;;;26.10;56.50;;;;;;4970405;28;20206;-69
2023/07/04 10:43:52;;;;;;;5.70;1.38;;;25.90;56.90;;;;;;4969017;28;20681;-68
2023/07/04 10:46:23;;;;;;;6.18;1.75;;;25.80;57.60;;;;;;4973383;28;20325;-69
2023/07/04 10:48:58;;;;;;;3.97;1.60;;;26.80;57.30;;;;;;4970125;28;20198;-69
2023/07/04 10:51:32;;;;;;;3.42;1.60;;;27.20;56.40;;;;;;4968401;28;20197;-69
2023/07/04 10:53:59;;;;;;;3.72;1.77;;;27.00;56.30;;;;;;4977200;28;20241;-69
2023/07/04 10:56:35;;;;;;;5.13;1.55;;;28.10;58.30;;;;;;4969934;28;20202;-69
2023/07/04 10:59:11;;;;;;;3.72;1.50;;;29.70;54.80;;;;;;4966039;28;20689;-69
2023/07/04 11:01:43;;;;;;;3.85;1.65;;;28.90;51.60;;;;;;4965213;28;20260;-69
2023/07/04 11:04:20;;;;;;;3.90;1.65;;;28.90;53.00;;;;;;4963090;28;20274;-69
2023/07/04 11:07:15;;;;;;;2.28;1.27;;;29.20;52.80;;;;;;4974649;28;20240;-69
2023/07/04 11:09:43;;;;;;;3.65;2.13;;;27.60;50.30;;;;;;4970841;28;20198;-69
2023/07/04 11:12:16;;;;;;;4.78;1.13;;;27.00;49.70;;;;;;4970194;28;20614;-68
2023/07/04 11:14:46;;;;;;;4.32;1.95;;;27.20;52.60;;;;;;4971187;28;20204;-68
2023/07/04 11:17:18;;;;;;;6.78;2.10;;;27.80;52.60;;;;;;4987401;28;20205;-67
2023/07/04 11:20:14;;;;;;;5.70;1.80;;;27.40;50.90;;;;;;4964881;28;20209;-68
2023/07/04 11:22:50;;;;;;;8.15;1.60;;;27.50;51.00;;;;;;4986404;28;20198;-69
2023/07/04 11:25:34;;;;;;;7.28;1.88;;;26.30;72.30;;;;;;4969907;28;20339;-68
2023/07/04 11:28:16;;;;;;;4.85;1.73;;;26.60;51.80;;;;;;4988384;28;20244;-68
2023/07/04 11:30:47;;;;;;;3.28;1.73;;;26.20;49.60;;;;;;4987679;28;20267;-69
2023/07/04 11:33:36;;;;;;;5.05;1.58;;;27.50;51.90;;;;;;4987738;28;20205;-69
2023/07/04 11:36:27;;;;;;;2.53;1.38;;;28.70;51.00;;;;;;4983267;28;20670;-69
2023/07/04 11:39:00;;;;;;;5.07;1.98;;;29.00;50.20;;;;;;4971970;28;20288;-69
2023/07/04 11:41:30;;;;;;;4.53;1.73;;;28.80;48.20;;;;;;4981968;28;20225;-69
2023/07/04 11:44:00;;;;;;;2.97;1.38;;;29.20;50.60;;;;;;4971102;28;20263;-69
2023/07/04 11:46:29;;;;;;;6.00;1.67;;;29.30;50.00;;;;;;4983720;28;20262;-69
2023/07/04 11:48:57;;;;;;;7.15;1.67;;;29.40;49.90;;;;;;4986216;28;20669;-69
2023/07/04 11:51:28;;;;;;;4.75;1.40;;;29.30;48.20;;;;;;4990378;28;20289;-70
2023/07/04 11:53:59;;;;;;;4.18;1.70;;;27.60;49.10;;;;;;4987666;28;20194;-69
2023/07/04 11:56:29;;;;;;;2.92;1.60;;;27.00;49.10;;;;;;4968465;28;20213;-69
2023/07/04 11:59:16;;;;;;;4.70;1.85;;;27.50;49.30;;;;;;4986266;28;20212;-69
2023/07/04 12:01:55;;;;;;;7.25;1.95;;;27.60;49.80;;;;;;4984888;28;20197;-67
2023/07/04 12:04:24;;;;;;;6.03;1.90;;;27.30;47.40;;;;;;4974843;28;20241;-69
2023/07/04 12:07:07;;;;;;;4.32;1.45;;;27.10;48.50;;;;;;4985216;28;20233;-69
2023/07/04 12:10:00;;;;;;;6.22;3.05;;;27.50;50.70;;;;;;4975024;28;20753;-68
2023/07/04 12:12:31;;;;;;;8.52;3.05;;;27.30;49.30;;;;;;4986454;28;20205;-69
2023/07/04 12:15:11;;;;;;;8.32;2.25;;;26.80;48.70;;;;;;4984413;28;20259;-68
2023/07/04 12:17:41;;;;;;;6.30;2.17;;;25.00;49.10;;;;;;4986563;28;20197;-68
2023/07/04 12:20:14;;;;;;;4.32;2.25;;;24.80;50.00;;;;;;4972119;28;20741;-68
2023/07/04 12:22:51;;;;;;;7.90;2.20;;;25.40;51.90;;;;;;4963198;28;20734;-68
2023/07/04 12:25:23;;;;;;;5.15;2.28;;;25.50;49.20;;;;;;4986922;28;20237;-68
2023/07/04 12:27:55;;;;;;;4.55;1.65;;;25.50;49.60;;;;;;4970049;28;20225;-68
2023/07/04 12:30:23;;;;;;;4.97;1.92;;;25.20;49.40;;;;;;4958864;28;20198;-68
2023/07/04 12:32:55;;;;;;;6.72;1.80;;;24.80;50.00;;;;;;4993615;28;20208;-68
2023/07/04 12:35:30;;;;;;;4.45;1.95;;;24.80;50.40;;;;;;4977667;28;20210;-68
2023/07/04 12:37:58;;;;;;;4.28;1.83;;;25.60;51.00;;;;;;4985195;28;20476;-68
2023/07/04 12:40:28;;;;;;;5.88;1.90;;;26.00;51.40;;;;;;4969254;28;20211;-68
2023/07/04 12:43:05;;;;;;;5.07;1.77;;;26.00;49.80;;;;;;4989050;28;20657;-68
2023/07/04 12:45:35;;;;;;;3.35;2.03;;;26.30;50.60;;;;;;4976436;28;20213;-68
2023/07/04 12:48:04;;;;;;;5.10;1.73;;;25.90;49.20;;;;;;4955512;28;20225;-69
2023/07/04 12:50:37;;;;;;;2.95;1.58;;;25.40;50.00;;;;;;4973704;28;20661;-69
2023/07/04 12:53:07;;;;;;;5.43;1.63;;;25.80;50.80;;;;;;4992222;28;20653;-69
2023/07/04 12:55:36;;;;;;;5.60;1.75;;;25.70;50.30;;;;;;4993344;28;20680;-69
2023/07/04 12:58:07;;;;;;;6.57;2.40;;;24.60;49.70;;;;;;4993471;28;20201;-68
2023/07/04 13:00:43;;;;;;;5.60;2.08;;;24.80;49.70;;;;;;4976763;28;20193;-69
2023/07/04 13:03:15;;;;;;;3.92;2.58;;;24.50;49.80;;;;;;4992921;28;20205;-71
2023/07/04 13:05:45;;;;;;;4.38;2.28;;;24.10;49.10;;;;;;4992295;28;20205;-61
2023/07/04 13:08:28;;;;;;;8.15;2.88;;;24.20;50.50;;;;;;4974007;28;20705;-60
2023/07/04 13:10:58;;;;;;;5.85;2.97;;;24.50;51.60;;;;;;4977188;28;20206;-60